Ames, Iowa
Current Conditions -  °F | °C
As of 2:53 AM on Friday 24 Oct 2014 (Local Time) from KAMW Reporting Station
Moderate Fog Moderate Fog  
Wind Chill:   Ceiling: 100
Heat Index:   Visibility: 0.25mi
Dew Point:   Wind: 3mph
Humidity: 96%   Direction: 140°SE
Pressure: 30.02"   Gusts: NA
Location:  42.03°N, 93.62°W
Report Text: KAMW 240753Z AUTO 14003KT 1/4SM FG VV001 09/08 A3002 RMK AO2 SLP161 T00890083
Loading
Personal Weather Stations






























Interactive Weather Map
Tropical Storm Tracking
New forecast layout! Learn more

10-Day Weather Forecast

Advertisements
Track Severe Weather on mobile